createdAt,value
2023-04-02T00:00:36.527Z,1174.3
2023-04-02T00:02:19.948Z,1169.2
2023-04-02T00:04:03.272Z,1165.4
2023-04-02T00:05:46.702Z,1163.7
2023-04-02T00:07:29.981Z,1158.8
2023-04-02T00:09:13.566Z,1154.4
2023-04-02T00:10:56.925Z,1151
2023-04-02T00:14:23.377Z,1143.8
2023-04-02T00:16:06.869Z,1137.5
2023-04-02T00:17:50.160Z,1134.5
2023-04-02T00:19:33.593Z,1128.3
2023-04-02T00:21:16.996Z,1123.7
2023-04-02T00:23:00.230Z,1119.7
2023-04-02T00:24:43.731Z,1121.2
2023-04-02T00:26:27.161Z,1122.6
2023-04-02T00:29:53.499Z,1115.3
2023-04-02T00:31:36.909Z,1112.7
2023-04-02T00:33:20.309Z,1105.7
2023-04-02T00:35:03.783Z,1100
2023-04-02T00:36:47.202Z,1096.5
2023-04-02T00:38:30.708Z,1095.5
2023-04-02T00:40:14.001Z,1092.1
2023-04-02T00:41:57.310Z,1086
2023-04-02T00:47:06.522Z,1073.4
2023-04-02T00:48:50.104Z,1070.3
2023-04-02T00:50:33.426Z,1065.5
2023-04-02T00:52:16.874Z,1061.2
2023-04-02T00:54:00.095Z,1059
2023-04-02T00:55:43.705Z,1058.6
2023-04-02T00:57:27.028Z,1056.7
2023-04-02T00:59:10.376Z,1049.2
2023-04-02T01:02:36.842Z,1044.1
2023-04-02T01:04:20.177Z,1042.8
2023-04-02T01:06:03.666Z,1038.8
2023-04-02T01:07:47.077Z,1037.7
2023-04-02T01:09:30.376Z,1035.3
2023-04-02T01:11:13.791Z,1032.8
2023-04-02T01:12:57.271Z,1029.8
2023-04-02T01:14:40.643Z,1023.3
2023-04-02T01:16:24.257Z,1020.9
2023-04-02T01:18:07.809Z,1018.3
2023-04-02T01:19:51.151Z,1017.2
2023-04-02T01:21:34.482Z,1016.4
2023-04-02T01:23:17.925Z,1014.5
2023-04-02T01:25:01.232Z,1011.1
2023-04-02T01:26:44.779Z,1008.2
2023-04-02T01:28:28.112Z,1006.6
2023-04-02T01:30:11.721Z,1001.3
2023-04-02T01:31:55.281Z,998.6
2023-04-02T01:33:38.672Z,998
2023-04-02T01:35:21.926Z,997.3
2023-04-02T01:37:05.415Z,999.3
2023-04-02T01:38:48.717Z,998.8
2023-04-02T01:40:32.101Z,996.7
2023-04-02T01:42:15.597Z,994.1
2023-04-02T01:43:59.265Z,991.4
2023-04-02T01:45:42.695Z,987.8
2023-04-02T01:47:26.100Z,986.8
2023-04-02T01:49:09.461Z,984.7
2023-04-02T01:50:52.932Z,980.8
2023-04-02T01:52:36.358Z,979.4
2023-04-02T01:54:19.792Z,980.2
2023-04-02T01:56:03.126Z,979.5
2023-04-02T01:57:46.806Z,978.3
2023-04-02T01:59:30.114Z,974.6
2023-04-02T02:01:13.611Z,971.4
2023-04-02T02:02:56.929Z,971.2
2023-04-02T02:04:40.271Z,972.2
2023-04-02T02:06:23.830Z,969.3
2023-04-02T02:08:07.124Z,964.3
2023-04-02T02:09:50.664Z,962.7
2023-04-02T02:11:34.290Z,963.5
2023-04-02T02:13:17.730Z,960.6
2023-04-02T02:15:01.082Z,959.3
2023-04-02T02:16:44.517Z,956.1
2023-04-02T02:18:27.869Z,952.7
2023-04-02T02:20:11.197Z,950.6
2023-04-02T02:21:54.716Z,949
2023-04-02T02:23:38.100Z,949
2023-04-02T02:25:21.641Z,949.6
2023-04-02T02:27:05.122Z,949.3
2023-04-02T02:28:48.525Z,948.8
2023-04-02T02:30:31.905Z,947
2023-04-02T02:32:15.241Z,947.2
2023-04-02T02:33:58.787Z,943.7
2023-04-02T02:35:42.185Z,939.6
2023-04-02T02:40:51.423Z,929.9
2023-04-02T02:42:34.822Z,932.8
2023-04-02T02:44:18.064Z,935.3
2023-04-02T02:46:01.577Z,937.6
2023-04-02T02:47:44.993Z,938.3
2023-04-02T02:51:11.683Z,932.5
2023-04-02T02:52:55.159Z,931.4
2023-04-02T02:56:21.556Z,929
2023-04-02T02:58:04.978Z,926.7
2023-04-02T02:59:48.395Z,925.3
2023-04-02T03:01:31.772Z,927
2023-04-02T03:03:15.104Z,927.4
2023-04-02T03:04:58.661Z,926.1
2023-04-02T03:06:41.897Z,926.2
2023-04-02T03:08:25.274Z,925.7
2023-04-02T03:11:51.979Z,923.3
2023-04-02T03:13:35.239Z,920.6
2023-04-02T03:15:18.564Z,918.1
2023-04-02T03:17:02.015Z,915.2
2023-04-02T03:18:45.404Z,910.7
2023-04-02T03:20:28.831Z,909
2023-04-02T03:22:12.193Z,909.6
2023-04-02T03:23:55.524Z,910.1
2023-04-02T03:27:22.098Z,902.4
2023-04-02T03:29:05.408Z,899.5
2023-04-02T03:30:48.808Z,897.6
2023-04-02T03:32:32.184Z,898.8
2023-04-02T03:34:15.693Z,897.7
2023-04-02T03:35:59.011Z,898.7
2023-04-02T03:37:42.440Z,899
2023-04-02T03:39:25.930Z,895.7
2023-04-02T03:41:09.574Z,893
2023-04-02T03:42:53.053Z,890.2
2023-04-02T03:44:36.278Z,889.4
2023-04-02T03:46:19.834Z,888
2023-04-02T03:48:03.133Z,884.1
2023-04-02T03:49:46.459Z,880.2
2023-04-02T03:51:29.925Z,878.6
2023-04-02T03:53:13.300Z,876.6
2023-04-02T03:58:22.691Z,875.4
2023-04-02T04:00:06.006Z,875.4
2023-04-02T04:01:49.405Z,873.4
2023-04-02T04:03:32.879Z,871.7
2023-04-02T04:05:16.178Z,870.2
2023-04-02T04:06:59.494Z,869.3
2023-04-02T04:08:42.891Z,866.4
2023-04-02T04:10:26.428Z,863.5
2023-04-02T04:13:52.752Z,862.8
2023-04-02T04:15:36.144Z,861.5
2023-04-02T04:17:19.633Z,860.3
2023-04-02T04:19:03.024Z,858.2
2023-04-02T04:20:46.378Z,855.7
2023-04-02T04:22:29.844Z,855.2
2023-04-02T04:24:13.123Z,855.7
2023-04-02T04:25:56.559Z,851.2
2023-04-02T04:27:40.238Z,847.8
2023-04-02T04:29:23.623Z,847.5
2023-04-02T04:31:07.166Z,850.6
2023-04-02T04:32:50.495Z,848.7
2023-04-02T04:34:33.800Z,844.8
2023-04-02T04:36:17.212Z,840.6
2023-04-02T04:38:00.600Z,839.7
2023-04-02T04:39:44.009Z,841.4
2023-04-02T04:41:27.698Z,847.2
2023-04-02T04:43:11.099Z,852.2
2023-04-02T04:44:54.504Z,855
2023-04-02T04:46:37.908Z,857.7
2023-04-02T04:48:21.339Z,858
2023-04-02T04:50:04.691Z,861
2023-04-02T04:53:31.490Z,901.6
2023-04-02T04:55:15.183Z,932.8
2023-04-02T04:56:58.570Z,940.7
2023-04-02T04:58:42.024Z,942.7
2023-04-02T05:00:25.372Z,947.6
2023-04-02T05:02:08.803Z,949.5
2023-04-02T05:03:52.160Z,943.8
2023-04-02T05:05:35.642Z,941.3
2023-04-02T05:07:18.958Z,940.3
2023-04-02T05:10:45.429Z,935.1
2023-04-02T05:12:28.820Z,935.8
2023-04-02T05:14:12.230Z,939.5
2023-04-02T05:15:55.610Z,948.1
2023-04-02T05:17:39.008Z,954.4
2023-04-02T05:19:22.415Z,954.1
2023-04-02T05:21:05.805Z,954.1
2023-04-02T05:24:32.284Z,951.3
2023-04-02T05:26:15.802Z,951.5
2023-04-02T05:27:59.097Z,949
2023-04-02T05:29:42.532Z,949.8
2023-04-02T05:31:25.856Z,948.7
2023-04-02T05:33:09.265Z,945.8
2023-04-02T05:34:52.703Z,943.3
2023-04-02T05:36:36.096Z,935.2
2023-04-02T05:40:02.587Z,923.2
2023-04-02T05:41:45.968Z,918.4
2023-04-02T05:43:29.330Z,913.3
2023-04-02T05:45:12.716Z,912.8
2023-04-02T05:46:56.171Z,908.6
2023-04-02T05:48:39.555Z,903.1
2023-04-02T05:50:22.964Z,897.6
2023-04-02T05:52:06.352Z,891.7
2023-04-02T05:53:50.040Z,887
2023-04-02T05:55:33.454Z,886.3
2023-04-02T05:57:16.861Z,884.5
2023-04-02T05:59:00.265Z,884
2023-04-02T06:00:43.630Z,879.8
2023-04-02T06:02:27.040Z,878.8
2023-04-02T06:04:10.453Z,877.5
2023-04-02T06:05:53.807Z,873.3
2023-04-02T06:07:37.530Z,869.8
2023-04-02T06:09:20.907Z,865
2023-04-02T06:11:04.307Z,862.6
2023-04-02T06:12:47.688Z,860.3
2023-04-02T06:14:31.133Z,858.8
2023-04-02T06:16:14.480Z,858.2
2023-04-02T06:17:57.885Z,855.3
2023-04-02T06:19:41.278Z,850.4
2023-04-02T06:23:07.758Z,846.5
2023-04-02T06:24:51.159Z,842.6
2023-04-02T06:26:34.616Z,838.8
2023-04-02T06:28:17.949Z,836.2
2023-04-02T06:30:01.324Z,835.8
2023-04-02T06:31:44.707Z,834.4
2023-04-02T06:33:28.124Z,833.8
2023-04-02T06:36:54.612Z,832.7
2023-04-02T06:38:37.980Z,831.4
2023-04-02T06:40:21.383Z,826.8
2023-04-02T06:42:04.779Z,824.7
2023-04-02T06:43:48.169Z,824
2023-04-02T06:45:31.709Z,822.4
2023-04-02T06:47:14.964Z,821.8
2023-04-02T06:48:58.362Z,822.7
2023-04-02T06:52:24.843Z,819.9
2023-04-02T06:54:08.227Z,819.5
2023-04-02T06:55:51.681Z,812.1
2023-04-02T06:57:35.030Z,798.7
2023-04-02T06:59:18.435Z,789.2
2023-04-02T07:01:01.875Z,777.2
2023-04-02T07:02:45.208Z,768.5
2023-04-02T07:04:28.595Z,773.3
2023-04-02T07:07:55.137Z,778.8
2023-04-02T07:09:38.482Z,781.7
2023-04-02T07:11:21.886Z,787.1
2023-04-02T07:13:05.253Z,793.3
2023-04-02T07:14:48.658Z,790.6
2023-04-02T07:16:32.062Z,784.8
2023-04-02T07:18:15.475Z,784.8
2023-04-02T07:19:58.869Z,786.4
2023-04-02T07:21:42.559Z,784.3
2023-04-02T07:23:25.951Z,781.3
2023-04-02T07:25:09.342Z,777.7
2023-04-02T07:26:52.741Z,775.2
2023-04-02T07:28:36.140Z,775.6
2023-04-02T07:30:19.607Z,772.6
2023-04-02T07:32:02.984Z,769
2023-04-02T07:33:46.366Z,764
2023-04-02T07:35:30.073Z,763.7
2023-04-02T07:37:13.473Z,765.8
2023-04-02T07:38:56.875Z,765.1
2023-04-02T07:40:40.230Z,764.3
2023-04-02T07:42:23.627Z,762.8
2023-04-02T07:44:07.013Z,760.7
2023-04-02T07:45:50.442Z,757.8
2023-04-02T07:47:33.857Z,754.1
2023-04-02T07:49:17.534Z,749.6
2023-04-02T07:51:00.956Z,748.7
2023-04-02T07:52:44.351Z,748.5
2023-04-02T07:54:27.729Z,750
2023-04-02T07:56:11.107Z,751
2023-04-02T07:57:54.567Z,748.6
2023-04-02T07:59:37.977Z,745
2023-04-02T08:01:21.308Z,741.5
2023-04-02T08:04:47.753Z,739.1
2023-04-02T08:06:31.220Z,738.6
2023-04-02T08:08:14.550Z,735.5
2023-04-02T08:09:57.946Z,733.5
2023-04-02T08:11:41.370Z,730.4
2023-04-02T08:13:24.756Z,729.1
2023-04-02T08:15:08.138Z,726.8
2023-04-02T08:16:51.584Z,728.4
2023-04-02T08:18:35.237Z,725.1
2023-04-02T08:20:18.643Z,721
2023-04-02T08:22:02.059Z,720
2023-04-02T08:23:45.435Z,720.7
2023-04-02T08:25:29.001Z,718.8
2023-04-02T08:27:12.225Z,714
2023-04-02T08:28:55.602Z,711.3
2023-04-02T08:30:39.033Z,711
2023-04-02T08:32:22.706Z,708.7
2023-04-02T08:34:06.109Z,704.2
2023-04-02T08:35:49.506Z,701.8
2023-04-02T08:37:33.016Z,701.5
2023-04-02T08:39:16.291Z,702.5
2023-04-02T08:40:59.686Z,705.8
2023-04-02T08:42:43.074Z,706.4
2023-04-02T08:44:26.476Z,704.1
2023-04-02T08:47:52.957Z,699
2023-04-02T08:49:36.520Z,698
2023-04-02T08:51:19.830Z,693.7
2023-04-02T08:53:03.137Z,688.8
2023-04-02T08:54:46.688Z,686.1
2023-04-02T08:56:30.004Z,684.6
2023-04-02T08:58:13.426Z,684.3
2023-04-02T08:59:56.911Z,686.7
2023-04-02T09:01:40.481Z,685.1
2023-04-02T09:03:23.851Z,683.2
2023-04-02T09:05:07.229Z,682
2023-04-02T09:06:50.666Z,682.1
2023-04-02T09:08:34.062Z,680.4
2023-04-02T09:10:17.439Z,676.2
2023-04-02T09:12:00.812Z,676.1
2023-04-02T09:13:44.200Z,672
2023-04-02T09:15:28.063Z,666.4
2023-04-02T09:17:11.299Z,665
2023-04-02T09:18:54.711Z,665.8
2023-04-02T09:20:38.126Z,669
2023-04-02T09:22:21.486Z,665.7
2023-04-02T09:24:04.911Z,663.7
2023-04-02T09:25:48.345Z,662.3
2023-04-02T09:27:31.705Z,660.7
2023-04-02T09:30:58.182Z,659.6
2023-04-02T09:32:41.564Z,661.7
2023-04-02T09:34:24.979Z,659.6
2023-04-02T09:36:08.418Z,657.7
2023-04-02T09:37:51.797Z,654.6
2023-04-02T09:39:35.149Z,651.4
2023-04-02T09:41:18.559Z,649.7
2023-04-02T09:43:01.930Z,650
2023-04-02T09:46:28.414Z,646.8
2023-04-02T09:48:11.830Z,644.7
2023-04-02T09:49:55.192Z,645.1
2023-04-02T09:51:38.618Z,645.1
2023-04-02T09:53:21.978Z,643.8
2023-04-02T09:55:05.413Z,644
2023-04-02T09:56:48.853Z,646.4
2023-04-02T09:58:32.167Z,645.1
2023-04-02T10:01:58.736Z,642.9
2023-04-02T10:03:42.033Z,639.7
2023-04-02T10:05:25.554Z,639.1
2023-04-02T10:07:08.868Z,635.5
2023-04-02T10:08:52.309Z,634.8
2023-04-02T10:10:35.629Z,634.7
2023-04-02T10:12:19.145Z,632.7
2023-04-02T10:14:02.441Z,633
2023-04-02T10:17:28.894Z,628
2023-04-02T10:19:12.294Z,625.6
2023-04-02T10:20:55.703Z,627.8
2023-04-02T10:22:39.082Z,626.1
2023-04-02T10:24:22.483Z,626.6
2023-04-02T10:26:05.962Z,624.3
2023-04-02T10:27:49.277Z,622.5
2023-04-02T10:29:32.681Z,623.4
2023-04-02T10:34:41.920Z,626.6
2023-04-02T10:36:25.369Z,627.2
2023-04-02T10:38:08.736Z,626.8
2023-04-02T10:39:52.112Z,624
2023-04-02T10:41:35.497Z,623.4
2023-04-02T10:43:18.897Z,620.8
2023-04-02T10:45:02.330Z,620.4
2023-04-02T10:46:45.699Z,621.2
2023-04-02T10:50:12.165Z,628.1
2023-04-02T10:51:55.581Z,629.5
2023-04-02T10:53:39.115Z,628.3
2023-04-02T10:55:22.367Z,626.5
2023-04-02T10:57:05.743Z,625.7
2023-04-02T10:58:49.146Z,623.1
2023-04-02T11:00:32.627Z,618.4
2023-04-02T11:02:15.922Z,614
2023-04-02T11:03:59.632Z,611.8
2023-04-02T11:05:43.135Z,611.3
2023-04-02T11:07:26.440Z,610.7
2023-04-02T11:09:09.945Z,611.4
2023-04-02T11:10:53.234Z,613.7
2023-04-02T11:12:36.752Z,615.2
2023-04-02T11:14:20.056Z,616.8
2023-04-02T11:16:03.590Z,618.2
2023-04-02T11:19:29.953Z,618.9
2023-04-02T11:21:13.379Z,617
2023-04-02T11:22:56.683Z,618.8
2023-04-02T11:24:40.087Z,617.6
2023-04-02T11:26:23.545Z,615.5
2023-04-02T11:28:06.863Z,613.8
2023-04-02T11:29:50.317Z,611.5
2023-04-02T11:31:33.658Z,610.3
2023-04-02T11:33:17.374Z,609.8
2023-04-02T11:35:00.769Z,610.8
2023-04-02T11:36:44.142Z,612.3
2023-04-02T11:38:27.573Z,623.1
2023-04-02T11:40:10.942Z,657.5
2023-04-02T11:41:54.380Z,652.7
2023-04-02T11:43:37.735Z,641.1
2023-04-02T11:45:21.146Z,640.2
2023-04-02T11:47:04.834Z,644
2023-04-02T11:48:48.252Z,653.2
2023-04-02T11:50:31.640Z,670.5
2023-04-02T11:52:15.396Z,761.8
2023-04-02T11:53:58.485Z,765
2023-04-02T11:55:41.833Z,745.6
2023-04-02T11:57:25.221Z,730.3
2023-04-02T11:59:08.618Z,724.1
2023-04-02T12:02:35.101Z,724.7
2023-04-02T12:04:18.536Z,719.6
2023-04-02T12:06:01.889Z,715.3
2023-04-02T12:07:45.276Z,716.8
2023-04-02T12:09:28.683Z,716.2
2023-04-02T12:11:12.117Z,714.6
2023-04-02T12:12:55.515Z,713.5
2023-04-02T12:18:04.723Z,715.4
2023-04-02T12:19:48.179Z,717.7
2023-04-02T12:21:31.706Z,725.3
2023-04-02T12:23:14.929Z,731.6
2023-04-02T12:24:58.402Z,730.6
2023-04-02T12:26:41.757Z,729.8
2023-04-02T12:28:25.101Z,730.5
2023-04-02T12:33:34.348Z,731.7
2023-04-02T12:35:17.760Z,732.7
2023-04-02T12:37:01.181Z,734.8
2023-04-02T12:38:44.537Z,735.6
2023-04-02T12:40:28.093Z,738.2
2023-04-02T12:42:11.323Z,742.2
2023-04-02T12:43:54.718Z,742.4
2023-04-02T12:45:38.235Z,741.6
2023-04-02T12:47:21.833Z,742.1
2023-04-02T12:49:05.211Z,743.2
2023-04-02T12:50:48.623Z,743.7
2023-04-02T12:52:32.001Z,753.4
2023-04-02T12:54:15.392Z,773.5
2023-04-02T12:55:58.815Z,871.5
2023-04-02T12:57:42.221Z,857.8
2023-04-02T12:59:25.606Z,828.5
2023-04-02T13:02:52.080Z,748.3
2023-04-02T13:04:35.550Z,739.6
2023-04-02T13:06:18.824Z,745.5
2023-04-02T13:08:02.232Z,735.5
2023-04-02T13:09:45.636Z,728.1
2023-04-02T13:11:29.074Z,725
2023-04-02T13:13:12.423Z,739.1
2023-04-02T13:18:21.671Z,788.9
2023-04-02T13:20:05.061Z,786.8
2023-04-02T13:21:48.483Z,785
2023-04-02T13:23:31.917Z,785.7
2023-04-02T13:25:15.283Z,788.7
2023-04-02T13:26:58.734Z,788.7
2023-04-02T13:28:42.042Z,791.2
2023-04-02T13:33:51.296Z,797
2023-04-02T13:35:34.679Z,798.6
2023-04-02T13:37:18.071Z,801.6
2023-04-02T13:39:01.467Z,800.3
2023-04-02T13:40:44.916Z,799.1
2023-04-02T13:42:28.294Z,801
2023-04-02T13:44:11.667Z,801.2
2023-04-02T13:45:55.068Z,801.2
2023-04-02T13:47:38.772Z,803.8
2023-04-02T13:49:22.175Z,805.8
2023-04-02T13:51:05.564Z,802.6
2023-04-02T13:52:48.960Z,801.6
2023-04-02T13:54:32.429Z,798.1
2023-04-02T13:56:15.743Z,795.6
2023-04-02T13:57:59.146Z,795.1
2023-04-02T13:59:42.541Z,794
2023-04-02T14:03:09.013Z,790.2
2023-04-02T14:04:52.405Z,790.5
2023-04-02T14:06:35.856Z,789.3
2023-04-02T14:08:19.203Z,787.6
2023-04-02T14:10:02.590Z,788.5
2023-04-02T14:11:46.067Z,789.1
2023-04-02T14:13:29.382Z,791
2023-04-02T14:15:12.792Z,790.1
2023-04-02T14:16:56.520Z,789.4
2023-04-02T14:18:39.878Z,790.5
2023-04-02T14:20:23.307Z,790.3
2023-04-02T14:22:06.683Z,790.8
2023-04-02T14:23:50.093Z,792
2023-04-02T14:25:33.594Z,792.8
2023-04-02T14:27:16.947Z,791.8
2023-04-02T14:29:00.304Z,790.2
2023-04-02T14:32:26.723Z,789.8
2023-04-02T14:34:10.147Z,788.1
2023-04-02T14:35:53.514Z,791.2
2023-04-02T14:37:36.936Z,793.5
2023-04-02T14:39:20.353Z,791.5
2023-04-02T14:41:03.722Z,790.5
2023-04-02T14:42:47.164Z,791.7
2023-04-02T14:44:30.495Z,793.2
2023-04-02T14:47:56.978Z,836.1
2023-04-02T14:49:40.366Z,819
2023-04-02T14:51:23.837Z,810.5
2023-04-02T14:53:07.162Z,808.3
2023-04-02T14:54:50.580Z,808.4
2023-04-02T14:56:33.978Z,809.6
2023-04-02T14:58:17.344Z,810.8
2023-04-02T15:00:00.755Z,811
2023-04-02T15:01:44.458Z,813.9
2023-04-02T15:03:27.845Z,815.1
2023-04-02T15:05:11.261Z,816.3
2023-04-02T15:06:54.660Z,815.1
2023-04-02T15:08:38.180Z,812.3
2023-04-02T15:10:21.495Z,811.3
2023-04-02T15:12:04.842Z,808.8
2023-04-02T15:13:48.240Z,806
2023-04-02T15:15:31.949Z,805.7
2023-04-02T15:17:15.366Z,811.5
2023-04-02T15:18:58.731Z,820.6
2023-04-02T15:20:42.197Z,825.2
2023-04-02T15:22:25.553Z,822.6
2023-04-02T15:24:08.929Z,818.7
2023-04-02T15:25:52.324Z,815
2023-04-02T15:27:35.717Z,816.6
2023-04-02T15:31:02.307Z,820.2
2023-04-02T15:32:45.606Z,822.7
2023-04-02T15:34:28.976Z,823.8
2023-04-02T15:37:55.775Z,827.6
2023-04-02T15:39:39.177Z,832.3
2023-04-02T15:41:22.552Z,840.4
2023-04-02T15:43:05.969Z,843.5
2023-04-02T15:44:49.684Z,850.4
2023-04-02T15:46:33.122Z,859.8
2023-04-02T15:48:16.450Z,864.3
2023-04-02T15:49:59.852Z,868.3
2023-04-02T15:51:43.284Z,870.2
2023-04-02T15:53:26.654Z,874.8
2023-04-02T15:55:10.055Z,875.5
2023-04-02T15:56:53.439Z,876.1
2023-04-02T16:00:19.963Z,881.3
2023-04-02T16:02:03.302Z,882.4
2023-04-02T16:03:46.721Z,885.6
2023-04-02T16:05:30.144Z,890.2
2023-04-02T16:07:13.495Z,895
2023-04-02T16:08:56.889Z,898.4
2023-04-02T16:10:40.310Z,905.8
2023-04-02T16:12:23.680Z,915.1
2023-04-02T16:15:50.173Z,924
2023-04-02T16:17:33.558Z,932.3
2023-04-02T16:19:16.964Z,937.5
2023-04-02T16:21:00.646Z,938
2023-04-02T16:22:43.751Z,937.8
2023-04-02T16:24:27.141Z,939.1
2023-04-02T16:26:10.625Z,943.3
2023-04-02T16:27:53.939Z,947.4
2023-04-02T16:31:20.444Z,952.3
2023-04-02T16:33:03.810Z,958.7
2023-04-02T16:34:47.210Z,961.6
2023-04-02T16:36:30.590Z,962.4
2023-04-02T16:38:14.003Z,963.7
2023-04-02T16:39:57.423Z,966.1
2023-04-02T16:41:40.798Z,964.5
2023-04-02T16:43:24.206Z,967.8
2023-04-02T16:46:50.681Z,982.6
2023-04-02T16:48:34.132Z,987.5
2023-04-02T16:50:17.497Z,988.8
2023-04-02T16:52:00.878Z,993.7
2023-04-02T16:53:44.272Z,999.5
2023-04-02T16:55:27.630Z,1003.7
2023-04-02T16:57:11.043Z,1008.2
2023-04-02T16:58:54.448Z,1010.1
2023-04-02T17:00:38.310Z,1011.3
2023-04-02T17:02:21.694Z,1015.4
2023-04-02T17:04:04.918Z,1021.8
2023-04-02T17:05:48.329Z,1027.8
2023-04-02T17:07:31.739Z,1028.3
2023-04-02T17:09:15.114Z,1030.7
2023-04-02T17:10:58.631Z,1032.5
2023-04-02T17:12:42.051Z,1035
2023-04-02T17:16:08.427Z,1044.3
2023-04-02T17:17:51.790Z,1048.3
2023-04-02T17:19:35.194Z,1048.8
2023-04-02T17:21:18.602Z,1048.4
2023-04-02T17:23:01.990Z,1046.5
2023-04-02T17:24:45.385Z,1044.5
2023-04-02T17:26:28.776Z,1045.8
2023-04-02T17:28:12.167Z,1051.4
2023-04-02T17:31:38.716Z,1052.7
2023-04-02T17:33:22.023Z,1058.8
2023-04-02T17:35:05.481Z,1059.5
2023-04-02T17:36:48.843Z,1061.1
2023-04-02T17:38:32.224Z,1067.1
2023-04-02T17:40:15.632Z,1071
2023-04-02T17:41:59.107Z,1126.4
2023-04-02T17:43:42.417Z,1143.3
2023-04-02T17:47:08.949Z,1148.5
2023-04-02T17:48:52.317Z,1139.5
2023-04-02T17:50:35.720Z,1130.5
2023-04-02T17:52:19.099Z,1124
2023-04-02T17:54:02.475Z,1120.2
2023-04-02T17:55:45.875Z,1110.8
2023-04-02T17:57:29.280Z,1102.6
2023-04-02T17:59:12.676Z,1090.5
2023-04-02T18:02:39.140Z,1094.2
2023-04-02T18:04:22.548Z,1101.6
2023-04-02T18:06:05.927Z,1108.6
2023-04-02T18:07:49.379Z,1115.7
2023-04-02T18:09:32.742Z,1114.8
2023-04-02T18:11:16.150Z,1119.3
2023-04-02T18:12:59.582Z,1131.8
2023-04-02T18:14:43.414Z,1143.1
2023-04-02T18:18:09.419Z,1158.4
2023-04-02T18:19:52.853Z,1159.7
2023-04-02T18:21:36.268Z,1163.7
2023-04-02T18:23:19.640Z,1165
2023-04-02T18:25:03.028Z,1160
2023-04-02T18:26:46.369Z,1153.4
2023-04-02T18:28:29.778Z,1149.6
2023-04-02T18:30:13.187Z,1147.8
2023-04-02T18:31:56.908Z,1147.8
2023-04-02T18:33:40.297Z,1150
2023-04-02T18:35:23.670Z,1155
2023-04-02T18:37:07.089Z,1158.8
2023-04-02T18:38:50.497Z,1161.6
2023-04-02T18:40:33.865Z,1163.5
2023-04-02T18:42:17.336Z,1163.5
2023-04-02T18:44:00.656Z,1161.6
2023-04-02T18:47:27.116Z,1170.3
2023-04-02T18:49:10.533Z,1176.5
2023-04-02T18:50:54.001Z,1180
2023-04-02T18:52:37.431Z,1181.7
2023-04-02T18:54:20.741Z,1183.7
2023-04-02T18:56:04.127Z,1186.4
2023-04-02T18:57:47.704Z,1187.6
2023-04-02T18:59:31.134Z,1190
2023-04-02T19:02:57.543Z,1191.5
2023-04-02T19:04:40.817Z,1187.5
2023-04-02T19:06:24.380Z,1180.7
2023-04-02T19:08:07.831Z,1176.8
2023-04-02T19:09:51.173Z,1176.1
2023-04-02T19:11:34.557Z,1180.1
2023-04-02T19:13:17.956Z,1186.2
2023-04-02T19:15:01.331Z,1188.3
2023-04-02T19:16:44.856Z,1188.4
2023-04-02T19:18:28.449Z,1188.3
2023-04-02T19:20:11.730Z,1186.1
2023-04-02T19:21:55.260Z,1187.3
2023-04-02T19:23:38.608Z,1185.5
2023-04-02T19:25:21.989Z,1185.7
2023-04-02T19:27:05.245Z,1183.7
2023-04-02T19:28:48.814Z,1175.8
2023-04-02T19:32:15.173Z,1177.3
2023-04-02T19:33:58.674Z,1173.6
2023-04-02T19:35:41.917Z,1169
2023-04-02T19:37:25.406Z,1167
2023-04-02T19:39:08.688Z,1166
2023-04-02T19:40:52.277Z,1171.3
2023-04-02T19:42:35.686Z,1172
2023-04-02T19:44:19.114Z,1174.6
2023-04-02T19:49:28.366Z,1182.5
2023-04-02T19:51:11.536Z,1185
2023-04-02T19:52:54.925Z,1183.8
2023-04-02T19:54:38.488Z,1186.8
2023-04-02T19:56:21.901Z,1189.7
2023-04-02T19:58:05.214Z,1192.5
2023-04-02T19:59:48.699Z,1192
2023-04-02T20:01:31.933Z,1192.3
2023-04-02T20:04:58.614Z,1190.8
2023-04-02T20:06:41.941Z,1188.1
2023-04-02T20:08:25.214Z,1182.5
2023-04-02T20:10:08.747Z,1184.2
2023-04-02T20:11:52.149Z,1181.4
2023-04-02T20:13:35.560Z,1174
2023-04-02T20:15:18.929Z,1174.3
2023-04-02T20:17:02.282Z,1174.3
2023-04-02T20:20:28.635Z,1179.5
2023-04-02T20:22:12.210Z,1182.2
2023-04-02T20:23:55.660Z,1187.5
2023-04-02T20:25:39.101Z,1189.8
2023-04-02T20:27:22.444Z,1190.3
2023-04-02T20:29:05.626Z,1192.2
2023-04-02T20:30:49.281Z,1191.2
2023-04-02T20:32:32.420Z,1192.3
2023-04-02T20:35:58.966Z,1194.9
2023-04-02T20:37:42.461Z,1195.5
2023-04-02T20:39:25.883Z,1194.4
2023-04-02T20:41:09.294Z,1197.3
2023-04-02T20:42:52.660Z,1198.6
2023-04-02T20:44:36.057Z,1198.6
2023-04-02T20:46:19.477Z,1199.4
2023-04-02T20:48:02.768Z,1196.8
2023-04-02T20:49:46.497Z,1196.9
2023-04-02T20:51:29.954Z,1199.5
2023-04-02T20:53:13.357Z,1199
2023-04-02T20:54:56.705Z,1198
2023-04-02T20:56:40.017Z,1197.6
2023-04-02T20:58:23.534Z,1201.1
2023-04-02T21:00:06.994Z,1202.3
2023-04-02T21:01:50.309Z,1201.3
2023-04-02T21:05:16.695Z,1200.1
2023-04-02T21:07:00.075Z,1198.6
2023-04-02T21:08:43.435Z,1197.5
2023-04-02T21:10:26.801Z,1198.6
2023-04-02T21:12:10.366Z,1200
2023-04-02T21:13:53.799Z,1201
2023-04-02T21:15:37.163Z,1200.7
2023-04-02T21:17:20.563Z,1202.3
2023-04-02T21:20:47.051Z,1207
2023-04-02T21:22:30.456Z,1213.6
2023-04-02T21:24:13.829Z,1215.5
2023-04-02T21:25:57.255Z,1219.1
2023-04-02T21:27:40.614Z,1219.3
2023-04-02T21:29:24.071Z,1213.7
2023-04-02T21:31:07.394Z,1205.8
2023-04-02T21:32:50.817Z,1195.8
2023-04-02T21:36:17.239Z,1179.9
2023-04-02T21:38:00.664Z,1174.3
2023-04-02T21:39:44.154Z,1172.8
2023-04-02T21:41:27.448Z,1171.4
2023-04-02T21:43:10.830Z,1174.3
2023-04-02T21:44:54.331Z,1177.8
2023-04-02T21:46:37.643Z,1182.2
2023-04-02T21:48:21.033Z,1187.1
2023-04-02T21:51:47.562Z,1189.2
2023-04-02T21:53:30.938Z,1184.2
2023-04-02T21:55:14.347Z,1181.3
2023-04-02T21:56:57.642Z,1182.6
2023-04-02T21:58:41.162Z,1179.3
2023-04-02T22:00:24.380Z,1174.8
2023-04-02T22:02:07.915Z,1172.5
2023-04-02T22:03:51.326Z,1170.7
2023-04-02T22:05:35.061Z,1169
2023-04-02T22:07:18.458Z,1169.4
2023-04-02T22:09:01.868Z,1171.5
2023-04-02T22:10:45.087Z,1172.3
2023-04-02T22:12:28.555Z,1170.6
2023-04-02T22:14:11.957Z,1172.8
2023-04-02T22:15:55.439Z,1175.3
2023-04-02T22:17:38.793Z,1179.1
2023-04-02T22:22:48.141Z,1188.6
2023-04-02T22:24:31.301Z,1187.8
2023-04-02T22:26:14.877Z,1183.3
2023-04-02T22:27:58.069Z,1178.2
2023-04-02T22:29:41.474Z,1173.8
2023-04-02T22:31:25.091Z,1171.8
2023-04-02T22:33:08.548Z,1168.2
2023-04-02T22:34:51.829Z,1164.1
2023-04-02T22:38:18.283Z,1155.1
2023-04-02T22:40:01.777Z,1152.5
2023-04-02T22:41:45.110Z,1145
2023-04-02T22:43:28.483Z,1141.7
2023-04-02T22:45:11.896Z,1134
2023-04-02T22:46:55.220Z,1131.7
2023-04-02T22:48:38.679Z,1128
2023-04-02T22:50:22.080Z,1124.4
2023-04-02T22:53:48.622Z,1126.1
2023-04-02T22:55:31.902Z,1126.4
2023-04-02T22:57:15.373Z,1128
2023-04-02T22:58:58.756Z,1127.3
2023-04-02T23:00:42.080Z,1127.6
2023-04-02T23:02:25.398Z,1127.4
2023-04-02T23:04:08.949Z,1126.6
2023-04-02T23:05:52.338Z,1124.6
2023-04-02T23:11:01.496Z,1119.4
2023-04-02T23:12:44.936Z,1115.6
2023-04-02T23:14:28.283Z,1111.4
2023-04-02T23:16:11.774Z,1104.3
2023-04-02T23:17:55.409Z,1101.8
2023-04-02T23:19:38.632Z,1099.2
2023-04-02T23:21:21.946Z,1096.5
2023-04-02T23:23:05.361Z,1095.5
2023-04-02T23:26:31.811Z,1093.4
2023-04-02T23:28:15.158Z,1089.3
2023-04-02T23:29:58.602Z,1087
2023-04-02T23:31:42.003Z,1085.4
2023-04-02T23:33:25.373Z,1085.1
2023-04-02T23:35:08.782Z,1084.1
2023-04-02T23:36:52.219Z,1084
2023-04-02T23:38:35.658Z,1083.8
2023-04-02T23:43:44.857Z,1079.2
2023-04-02T23:45:28.260Z,1075.4
2023-04-02T23:47:11.670Z,1069.7
2023-04-02T23:48:55.084Z,1061.4
2023-04-02T23:50:38.268Z,1055.6
2023-04-02T23:52:21.802Z,1054.2
2023-04-02T23:54:05.235Z,1041.2
2023-04-02T23:55:48.635Z,1022.4
2023-04-02T23:59:15.093Z,995.6
